createdAt,value
2017-12-04T00:01:02.515Z,91.60
2017-12-04T00:03:29.190Z,91.70
2017-12-04T00:05:55.771Z,91.60
2017-12-04T00:08:22.349Z,91.90
2017-12-04T00:10:48.969Z,92.20
2017-12-04T00:13:15.534Z,92.20
2017-12-04T00:15:42.133Z,92.30
2017-12-04T00:18:08.742Z,92.30
2017-12-04T00:20:35.337Z,92.30
2017-12-04T00:23:02.266Z,92.20
2017-12-04T00:25:28.902Z,92.20
2017-12-04T00:27:55.442Z,92.30
2017-12-04T00:30:22.034Z,92.00
2017-12-04T00:32:48.978Z,91.70
2017-12-04T00:35:15.506Z,91.70
2017-12-04T00:37:42.060Z,91.80
2017-12-04T00:40:08.674Z,91.60
2017-12-04T00:42:35.220Z,91.50
2017-12-04T00:45:01.752Z,91.40
2017-12-04T00:47:28.426Z,91.70
2017-12-04T00:49:55.005Z,91.50
2017-12-04T00:52:21.541Z,91.40
2017-12-04T00:54:48.127Z,91.20
2017-12-04T00:57:15.051Z,90.90
2017-12-04T00:59:41.593Z,91.00
2017-12-04T01:02:08.231Z,90.50
2017-12-04T01:04:34.827Z,90.40
2017-12-04T01:07:01.751Z,90.00
2017-12-04T01:09:28.350Z,90.10
2017-12-04T01:11:54.902Z,89.90
2017-12-04T01:14:21.454Z,89.30
2017-12-04T01:16:48.053Z,89.20
2017-12-04T01:19:14.593Z,89.00
2017-12-04T01:21:41.201Z,88.90
2017-12-04T01:24:07.807Z,88.90
2017-12-04T01:26:34.729Z,88.80
2017-12-04T01:29:01.279Z,88.80
2017-12-04T01:31:27.894Z,88.90
2017-12-04T01:33:54.445Z,88.90
2017-12-04T01:36:20.989Z,88.80
2017-12-04T01:38:47.667Z,88.70
2017-12-04T01:41:14.581Z,88.60
2017-12-04T01:43:41.134Z,88.60
2017-12-04T01:46:07.757Z,88.80
2017-12-04T01:48:34.713Z,89.30
2017-12-04T01:51:01.669Z,89.40
2017-12-04T01:53:28.654Z,89.20
2017-12-04T01:55:55.205Z,89.20
2017-12-04T01:58:21.757Z,89.40
2017-12-04T02:00:48.526Z,89.70
2017-12-04T02:03:15.122Z,89.80
2017-12-04T02:05:42.070Z,90.30
2017-12-04T02:08:08.674Z,90.30
2017-12-04T02:10:35.259Z,90.30
2017-12-04T02:13:01.803Z,90.30
2017-12-04T02:15:28.386Z,90.30
2017-12-04T02:17:55.353Z,90.80
2017-12-04T02:20:21.958Z,90.80
2017-12-04T02:22:48.639Z,91.10
2017-12-04T02:25:15.223Z,91.40
2017-12-04T02:27:41.841Z,91.50
2017-12-04T02:30:08.591Z,91.30
2017-12-04T02:32:35.219Z,91.30
2017-12-04T02:37:35.383Z,91.30
2017-12-04T02:40:02.351Z,91.60
2017-12-04T02:42:29.340Z,91.60
2017-12-04T02:44:56.114Z,91.60
2017-12-04T02:47:22.768Z,91.70
2017-12-04T02:49:49.376Z,91.80
2017-12-04T02:52:16.186Z,91.60
2017-12-04T02:54:42.777Z,91.30
2017-12-04T02:57:09.393Z,91.00
2017-12-04T02:59:36.494Z,90.50
2017-12-04T03:02:03.149Z,90.50
2017-12-04T03:04:29.726Z,90.10
2017-12-04T03:06:56.322Z,90.10
2017-12-04T03:09:22.857Z,90.30
2017-12-04T03:11:49.769Z,90.70
2017-12-04T03:14:16.373Z,90.70
2017-12-04T03:16:42.993Z,91.00
2017-12-04T03:19:09.602Z,91.20
2017-12-04T03:21:36.274Z,91.30
2017-12-04T03:24:02.901Z,91.60
2017-12-04T03:26:29.529Z,91.60
2017-12-04T03:28:56.210Z,91.80
2017-12-04T03:31:22.767Z,92.00
2017-12-04T03:33:49.338Z,92.30
2017-12-04T03:36:15.977Z,92.40
2017-12-04T03:38:42.606Z,92.60
2017-12-04T03:41:09.250Z,92.70
2017-12-04T03:43:35.909Z,92.80
2017-12-04T03:46:02.525Z,92.60
2017-12-04T03:48:29.078Z,92.60
2017-12-04T03:50:55.673Z,92.60
2017-12-04T03:53:22.227Z,92.90
2017-12-04T03:55:49.141Z,93.20
2017-12-04T03:58:15.743Z,93.20
2017-12-04T04:00:42.681Z,93.10
2017-12-04T04:03:09.238Z,93.10
2017-12-04T04:05:36.289Z,92.90
2017-12-04T04:08:02.850Z,92.90
2017-12-04T04:10:29.803Z,93.10
2017-12-04T04:12:56.777Z,93.20
2017-12-04T04:15:23.338Z,93.10
2017-12-04T04:17:49.878Z,93.20
2017-12-04T04:20:16.559Z,93.00
2017-12-04T04:22:43.125Z,93.10
2017-12-04T04:25:09.718Z,93.30
2017-12-04T04:27:36.314Z,93.40
2017-12-04T04:30:02.893Z,93.40
2017-12-04T04:32:29.798Z,93.10
2017-12-04T04:34:56.398Z,93.10
2017-12-04T04:37:23.305Z,93.50
2017-12-04T04:39:49.841Z,93.50
2017-12-04T04:42:16.491Z,93.60
2017-12-04T04:44:43.054Z,93.60
2017-12-04T04:47:09.645Z,93.40
2017-12-04T04:49:36.710Z,93.20
2017-12-04T04:52:03.730Z,93.20
2017-12-04T04:54:30.393Z,93.20
2017-12-04T04:56:57.047Z,92.90
2017-12-04T04:59:23.654Z,92.90
2017-12-04T05:01:50.250Z,93.00
2017-12-04T05:04:17.316Z,92.90
2017-12-04T05:06:44.298Z,92.90
2017-12-04T05:09:10.881Z,92.90
2017-12-04T05:11:37.482Z,92.80
2017-12-04T05:14:04.466Z,93.10
2017-12-04T05:16:31.061Z,93.10
2017-12-04T05:18:57.720Z,93.20
2017-12-04T05:21:31.189Z,93.30
2017-12-04T05:23:57.781Z,93.10
2017-12-04T05:26:24.789Z,92.60
2017-12-04T05:28:51.393Z,92.60
2017-12-04T05:31:18.368Z,92.20
2017-12-04T05:33:44.920Z,92.20
2017-12-04T05:36:11.505Z,92.20
2017-12-04T05:38:38.244Z,92.00
2017-12-04T05:41:04.814Z,92.00
2017-12-04T05:43:31.356Z,91.90
2017-12-04T05:45:57.993Z,92.00
2017-12-04T05:48:24.598Z,92.00
2017-12-04T05:50:51.142Z,92.00
2017-12-04T05:53:17.754Z,91.90
2017-12-04T05:55:44.306Z,91.80
2017-12-04T05:58:10.898Z,92.00
2017-12-04T06:00:37.522Z,92.30
2017-12-04T06:03:04.425Z,92.60
2017-12-04T06:05:31.023Z,92.60
2017-12-04T06:07:57.643Z,92.80
2017-12-04T06:10:24.190Z,92.50
2017-12-04T06:12:50.730Z,92.30
2017-12-04T06:15:17.348Z,91.90
2017-12-04T06:17:43.929Z,91.60
2017-12-04T06:20:10.465Z,91.60
2017-12-04T06:22:37.109Z,91.40
2017-12-04T06:25:03.651Z,91.40
2017-12-04T06:27:30.198Z,91.20
2017-12-04T06:29:56.795Z,90.90
2017-12-04T06:32:23.339Z,90.90
2017-12-04T06:34:49.889Z,90.60
2017-12-04T06:37:16.482Z,90.50
2017-12-04T06:39:43.021Z,90.30
2017-12-04T06:42:09.646Z,90.30
2017-12-04T06:44:36.746Z,90.30
2017-12-04T06:47:03.326Z,90.30
2017-12-04T06:49:29.917Z,90.40
2017-12-04T06:51:56.565Z,90.40
2017-12-04T06:54:23.161Z,90.20
2017-12-04T06:56:49.723Z,90.40
2017-12-04T06:59:16.330Z,90.20
2017-12-04T07:01:42.858Z,90.20
2017-12-04T07:04:09.462Z,90.30
2017-12-04T07:06:36.091Z,90.30
2017-12-04T07:09:02.813Z,90.30
2017-12-04T07:11:29.357Z,90.00
2017-12-04T07:13:55.945Z,89.60
2017-12-04T07:16:22.501Z,89.70
2017-12-04T07:18:49.035Z,89.50
2017-12-04T07:21:15.666Z,89.60
2017-12-04T07:23:42.201Z,89.30
2017-12-04T07:26:08.758Z,89.30
2017-12-04T07:28:35.349Z,89.20
2017-12-04T07:31:01.899Z,89.00
2017-12-04T07:33:28.618Z,89.00
2017-12-04T07:35:55.253Z,88.60
2017-12-04T07:38:21.806Z,88.40
2017-12-04T07:40:48.430Z,88.30
2017-12-04T07:43:15.086Z,88.10
2017-12-04T07:45:41.614Z,88.00
2017-12-04T07:48:08.523Z,88.00
2017-12-04T07:50:35.121Z,88.00
2017-12-04T07:53:02.050Z,87.60
2017-12-04T07:55:28.991Z,87.50
2017-12-04T07:57:55.577Z,87.50
2017-12-04T08:00:22.514Z,87.40
2017-12-04T08:02:49.190Z,87.40
2017-12-04T08:05:15.959Z,87.30
2017-12-04T08:07:42.618Z,87.30
2017-12-04T08:10:09.641Z,88.00
2017-12-04T08:12:36.666Z,88.30
2017-12-04T08:15:03.289Z,88.30
2017-12-04T08:17:29.834Z,89.10
2017-12-04T08:19:56.500Z,90.20
2017-12-04T08:22:23.124Z,91.00
2017-12-04T08:24:49.719Z,91.30
2017-12-04T08:27:16.357Z,91.40
2017-12-04T08:29:42.942Z,91.30
2017-12-04T08:32:09.870Z,91.00
2017-12-04T08:34:36.509Z,91.00
2017-12-04T08:37:03.053Z,90.90
2017-12-04T08:39:29.655Z,90.70
2017-12-04T08:41:56.322Z,90.80
2017-12-04T08:44:22.914Z,90.60
2017-12-04T08:46:49.444Z,90.10
2017-12-04T08:49:16.034Z,89.90
2017-12-04T08:51:42.957Z,89.70
2017-12-04T08:54:09.498Z,89.70
2017-12-04T08:56:36.104Z,89.70
2017-12-04T08:59:02.642Z,89.40
2017-12-04T09:01:29.214Z,89.30
2017-12-04T09:03:55.818Z,89.30
2017-12-04T09:06:22.797Z,89.40
2017-12-04T09:08:49.385Z,89.40
2017-12-04T09:11:15.993Z,89.10
2017-12-04T09:13:42.550Z,89.20
2017-12-04T09:16:09.085Z,88.70
2017-12-04T09:18:35.748Z,88.60
2017-12-04T09:21:02.374Z,88.50
2017-12-04T09:23:28.990Z,88.00
2017-12-04T09:25:55.638Z,87.90
2017-12-04T09:28:22.207Z,88.00
2017-12-04T09:30:49.181Z,86.80
2017-12-04T09:33:15.900Z,86.80
2017-12-04T09:35:42.845Z,87.70
2017-12-04T09:38:09.434Z,87.80
2017-12-04T09:40:36.085Z,87.80
2017-12-04T09:43:02.662Z,87.50
2017-12-04T09:45:29.242Z,87.60
2017-12-04T09:47:55.858Z,87.50
2017-12-04T09:50:22.467Z,87.30
2017-12-04T09:52:49.409Z,87.10
2017-12-04T09:55:16.959Z,87.10
2017-12-04T09:57:43.575Z,87.20
2017-12-04T10:00:10.189Z,87.10
2017-12-04T10:02:37.197Z,86.60
2017-12-04T10:05:03.819Z,86.60
2017-12-04T10:07:30.438Z,86.60
2017-12-04T10:09:57.114Z,86.30
2017-12-04T10:12:23.690Z,86.40
2017-12-04T10:14:50.330Z,86.40
2017-12-04T10:17:16.973Z,86.90
2017-12-04T10:19:43.526Z,87.10
2017-12-04T10:22:10.071Z,87.20
2017-12-04T10:24:36.682Z,87.40
2017-12-04T10:27:03.646Z,87.90
2017-12-04T10:29:30.565Z,88.40
2017-12-04T10:31:57.186Z,88.40
2017-12-04T10:34:23.751Z,88.60
2017-12-04T10:36:50.314Z,89.00
2017-12-04T10:39:16.910Z,89.00
2017-12-04T10:41:43.458Z,88.90
2017-12-04T10:44:10.040Z,88.70
2017-12-04T10:46:36.685Z,88.90
2017-12-04T10:49:03.254Z,88.90
2017-12-04T10:51:29.826Z,88.60
2017-12-04T10:53:56.885Z,88.30
2017-12-04T10:56:23.866Z,88.30
2017-12-04T10:58:50.489Z,88.30
2017-12-04T11:01:17.586Z,88.20
2017-12-04T11:03:44.155Z,88.20
2017-12-04T11:06:10.747Z,88.20
2017-12-04T11:08:37.766Z,87.90
2017-12-04T11:11:04.360Z,87.90
2017-12-04T11:13:31.281Z,87.10
2017-12-04T11:15:57.933Z,87.10
2017-12-04T11:18:24.526Z,87.20
2017-12-04T11:20:51.141Z,87.40
2017-12-04T11:23:17.834Z,87.20
2017-12-04T11:25:44.465Z,87.30
2017-12-04T11:28:11.031Z,87.20
2017-12-04T11:30:37.762Z,87.00
2017-12-04T11:33:04.754Z,86.90
2017-12-04T11:35:31.366Z,86.90
2017-12-04T11:38:05.026Z,86.90
2017-12-04T11:40:31.638Z,87.00
2017-12-04T11:42:58.232Z,86.80
2017-12-04T11:45:25.327Z,86.60
2017-12-04T11:47:52.318Z,86.60
2017-12-04T11:50:18.929Z,86.60
2017-12-04T11:52:45.966Z,86.70
2017-12-04T11:55:12.640Z,86.70
2017-12-04T11:57:39.376Z,86.60
2017-12-04T12:00:06.397Z,86.40
2017-12-04T12:02:33.110Z,86.40
2017-12-04T12:04:59.741Z,86.40
2017-12-04T12:07:26.420Z,86.00
2017-12-04T12:09:53.014Z,86.30
2017-12-04T12:12:19.625Z,86.00
2017-12-04T12:14:46.243Z,85.90
2017-12-04T12:17:13.215Z,86.00
2017-12-04T12:19:39.804Z,86.00
2017-12-04T12:22:06.397Z,86.10
2017-12-04T12:24:33.322Z,85.90
2017-12-04T12:26:59.882Z,85.90
2017-12-04T12:29:26.878Z,85.80
2017-12-04T12:31:53.417Z,85.90
2017-12-04T12:34:19.948Z,85.90
2017-12-04T12:36:46.938Z,86.40
2017-12-04T12:39:13.478Z,86.50
2017-12-04T12:41:40.021Z,86.90
2017-12-04T12:44:06.621Z,86.70
2017-12-04T12:46:33.208Z,86.70
2017-12-04T12:49:00.134Z,86.90
2017-12-04T12:51:26.775Z,86.90
2017-12-04T12:53:53.366Z,87.10
2017-12-04T12:56:19.905Z,86.90
2017-12-04T12:58:46.523Z,87.00
2017-12-04T13:01:13.073Z,87.30
2017-12-04T13:03:39.615Z,87.30
2017-12-04T13:06:06.237Z,87.40
2017-12-04T13:08:32.786Z,87.60
2017-12-04T13:10:59.402Z,87.40
2017-12-04T13:13:26.366Z,87.70
2017-12-04T13:15:52.907Z,87.70
2017-12-04T13:18:21.326Z,88.50
2017-12-04T13:20:47.921Z,88.50
2017-12-04T13:23:14.825Z,88.80
2017-12-04T13:25:41.430Z,88.80
2017-12-04T13:28:08.566Z,89.00
2017-12-04T13:30:35.121Z,89.50
2017-12-04T13:33:14.008Z,89.80
2017-12-04T13:35:52.622Z,90.40
2017-12-04T13:38:19.237Z,90.80
2017-12-04T13:40:45.779Z,90.80
2017-12-04T13:43:12.338Z,90.90
2017-12-04T13:45:39.008Z,91.00
2017-12-04T13:48:06.493Z,91.10
2017-12-04T13:50:33.086Z,91.10
2017-12-04T13:52:59.746Z,91.00
2017-12-04T13:55:26.338Z,90.70
2017-12-04T13:57:52.938Z,90.80
2017-12-04T14:00:19.612Z,90.70
2017-12-04T14:02:46.590Z,90.60
2017-12-04T14:05:13.190Z,90.60
2017-12-04T14:07:39.925Z,90.60
2017-12-04T14:10:06.472Z,90.80
2017-12-04T14:12:33.050Z,90.80
2017-12-04T14:14:59.655Z,90.90
2017-12-04T14:17:26.258Z,91.00
2017-12-04T14:19:52.846Z,90.80
2017-12-04T14:22:19.535Z,90.90
2017-12-04T14:24:46.098Z,90.80
2017-12-04T14:27:12.642Z,90.80
2017-12-04T14:29:39.241Z,90.70
2017-12-04T14:32:05.869Z,90.70
2017-12-04T14:34:32.421Z,90.80
2017-12-04T14:36:59.015Z,90.90
2017-12-04T14:39:25.682Z,91.20
2017-12-04T14:41:52.235Z,91.50
2017-12-04T14:44:19.223Z,91.90
2017-12-04T14:46:45.818Z,91.90
2017-12-04T14:49:12.486Z,92.00
2017-12-04T14:51:39.228Z,92.00
2017-12-04T14:54:05.850Z,92.00
2017-12-04T14:56:34.752Z,92.00
2017-12-04T14:59:01.438Z,92.10
2017-12-04T15:01:28.206Z,92.00
2017-12-04T15:03:55.181Z,92.40
2017-12-04T15:06:21.866Z,92.40
2017-12-04T15:08:48.453Z,92.80
2017-12-04T15:11:15.514Z,92.80
2017-12-04T15:13:42.690Z,92.80
2017-12-04T15:16:09.701Z,93.00
2017-12-04T15:18:36.326Z,93.00
2017-12-04T15:21:02.990Z,93.20
2017-12-04T15:23:29.638Z,93.10
2017-12-04T15:25:56.258Z,93.10
2017-12-04T15:28:23.074Z,93.20
2017-12-04T15:30:49.685Z,93.20
2017-12-04T15:33:16.298Z,93.40
2017-12-04T15:35:42.950Z,93.80
2017-12-04T15:38:09.577Z,93.90
2017-12-04T15:40:36.191Z,94.00
2017-12-04T15:43:02.841Z,94.20
2017-12-04T15:45:29.475Z,94.40
2017-12-04T15:47:56.076Z,94.60
2017-12-04T15:50:22.827Z,94.80
2017-12-04T15:52:49.781Z,94.90
2017-12-04T15:55:16.390Z,94.90
2017-12-04T15:57:43.097Z,95.00
2017-12-04T16:00:10.072Z,94.90
2017-12-04T16:02:36.690Z,94.90
2017-12-04T16:05:03.739Z,94.90
2017-12-04T16:07:30.318Z,94.90
2017-12-04T16:09:56.902Z,94.80
2017-12-04T16:12:23.533Z,94.80
2017-12-04T16:14:50.106Z,94.70
2017-12-04T16:17:16.697Z,94.80
2017-12-04T16:19:43.746Z,94.50
2017-12-04T16:22:10.658Z,94.40
2017-12-04T16:24:37.237Z,94.40
2017-12-04T16:27:03.891Z,94.40
2017-12-04T16:29:30.490Z,94.40
2017-12-04T16:31:57.250Z,94.10
2017-12-04T16:34:23.958Z,94.00
2017-12-04T16:36:50.909Z,93.90
2017-12-04T16:39:17.838Z,94.20
2017-12-04T16:41:44.529Z,94.20
2017-12-04T16:44:11.121Z,94.10
2017-12-04T16:46:37.674Z,93.90
2017-12-04T16:49:04.370Z,93.90
2017-12-04T16:51:31.326Z,93.80
2017-12-04T16:53:58.250Z,93.70
2017-12-04T16:56:24.902Z,93.70
2017-12-04T16:58:51.485Z,93.60
2017-12-04T17:01:18.158Z,93.40
2017-12-04T17:03:44.814Z,93.40
2017-12-04T17:06:11.422Z,93.30
2017-12-04T17:08:38.410Z,93.40
2017-12-04T17:11:05.041Z,93.40
2017-12-04T17:13:32.293Z,92.80
2017-12-04T17:16:00.194Z,92.80
2017-12-04T17:18:26.802Z,92.90
2017-12-04T17:20:53.386Z,92.60
2017-12-04T17:23:19.958Z,92.50
2017-12-04T17:25:46.606Z,92.60
2017-12-04T17:28:13.201Z,92.60
2017-12-04T17:30:39.867Z,92.40
2017-12-04T17:33:06.567Z,92.30
2017-12-04T17:35:33.185Z,92.30
2017-12-04T17:37:59.802Z,92.50
2017-12-04T17:40:26.814Z,92.20
2017-12-04T17:42:53.463Z,92.20
2017-12-04T17:45:20.026Z,91.90
2017-12-04T17:47:46.776Z,91.90
2017-12-04T17:50:13.374Z,91.80
2017-12-04T17:52:39.994Z,91.70
2017-12-04T17:55:06.633Z,91.40
2017-12-04T17:57:33.211Z,91.40
2017-12-04T18:00:00.162Z,91.40
2017-12-04T18:02:27.323Z,91.40
2017-12-04T18:04:54.314Z,91.40
2017-12-04T18:07:20.990Z,91.40
2017-12-04T18:09:47.671Z,91.40
2017-12-04T18:12:14.359Z,91.40
2017-12-04T18:14:40.966Z,91.30
2017-12-04T18:17:07.617Z,91.40
2017-12-04T18:19:34.254Z,91.30
2017-12-04T18:22:00.894Z,91.40
2017-12-04T18:24:27.595Z,91.30
2017-12-04T18:26:54.207Z,91.40
2017-12-04T18:29:20.831Z,91.40
2017-12-04T18:31:47.675Z,91.50
2017-12-04T18:34:14.405Z,91.80
2017-12-04T18:36:41.017Z,92.00
2017-12-04T18:39:07.724Z,92.50
2017-12-04T18:41:34.346Z,92.70
2017-12-04T18:44:00.958Z,92.90
2017-12-04T18:46:27.642Z,92.80
2017-12-04T18:48:54.645Z,92.70
2017-12-04T18:51:21.277Z,92.70
2017-12-04T18:53:47.950Z,92.90
2017-12-04T18:56:14.586Z,93.20
2017-12-04T18:58:41.190Z,93.30
2017-12-04T19:01:08.282Z,93.40
2017-12-04T19:03:34.913Z,93.40
2017-12-04T19:06:01.530Z,93.30
2017-12-04T19:08:28.222Z,93.40
2017-12-04T19:10:54.846Z,93.70
2017-12-04T19:13:21.874Z,93.90
2017-12-04T19:15:48.567Z,93.90
2017-12-04T19:18:15.190Z,94.20
2017-12-04T19:20:41.841Z,94.30
2017-12-04T19:23:08.881Z,94.50
2017-12-04T19:25:35.483Z,94.50
2017-12-04T19:28:02.099Z,94.50
2017-12-04T19:30:29.154Z,94.30
2017-12-04T19:32:55.766Z,94.30
2017-12-04T19:35:22.401Z,94.30
2017-12-04T19:37:49.179Z,94.20
2017-12-04T19:40:16.639Z,94.10
2017-12-04T19:42:44.255Z,94.10
2017-12-04T19:45:11.310Z,94.10
2017-12-04T19:47:38.321Z,94.10
2017-12-04T19:50:04.969Z,94.10
2017-12-04T19:52:31.670Z,94.10
2017-12-04T19:54:58.671Z,94.00
2017-12-04T19:57:25.305Z,94.00
2017-12-04T19:59:52.041Z,94.00
2017-12-04T20:02:18.685Z,93.90
2017-12-04T20:04:45.866Z,93.90
2017-12-04T20:07:14.254Z,93.90
2017-12-04T20:09:40.951Z,93.90
2017-12-04T20:12:07.787Z,93.80
2017-12-04T20:14:35.449Z,93.70
2017-12-04T20:17:02.137Z,94.10
2017-12-04T20:19:28.766Z,94.50
2017-12-04T20:21:55.862Z,95.20
2017-12-04T20:24:23.989Z,95.30
2017-12-04T20:26:51.289Z,95.50
2017-12-04T20:29:18.363Z,95.50
2017-12-04T20:31:45.667Z,95.70
2017-12-04T20:34:12.531Z,95.70
2017-12-04T20:36:39.546Z,95.90
2017-12-04T20:39:06.839Z,95.90
2017-12-04T20:41:33.736Z,95.90
2017-12-04T20:44:00.705Z,95.90
2017-12-04T20:46:28.544Z,95.70
2017-12-04T20:48:55.417Z,95.60
2017-12-04T20:51:22.391Z,95.60
2017-12-04T20:53:49.314Z,95.50
2017-12-04T20:56:16.182Z,95.30
2017-12-04T20:58:43.209Z,95.30
2017-12-04T21:01:10.094Z,95.40
2017-12-04T21:03:37.030Z,95.30
2017-12-04T21:06:04.101Z,95.20
2017-12-04T21:08:43.062Z,95.30
2017-12-04T21:11:22.113Z,95.10
2017-12-04T21:14:00.900Z,94.90
2017-12-04T21:16:50.307Z,95.00
2017-12-04T21:19:18.106Z,94.90
2017-12-04T21:21:45.013Z,95.20
2017-12-04T21:24:11.996Z,94.80
2017-12-04T21:26:38.935Z,94.80
2017-12-04T21:29:05.828Z,94.80
2017-12-04T21:31:32.735Z,94.70
2017-12-04T21:33:59.662Z,94.50
2017-12-04T21:36:26.868Z,94.30
2017-12-04T21:38:53.834Z,94.30
2017-12-04T21:41:20.712Z,94.20
2017-12-04T21:43:47.606Z,94.00
2017-12-04T21:46:14.523Z,94.00
2017-12-04T21:48:41.510Z,94.10
2017-12-04T21:51:08.861Z,95.10
2017-12-04T21:53:35.882Z,95.10
2017-12-04T21:56:02.743Z,95.10
2017-12-04T21:58:29.615Z,95.40
2017-12-04T22:00:56.538Z,95.50
2017-12-04T22:03:23.422Z,95.40
2017-12-04T22:05:50.333Z,95.60
2017-12-04T22:08:17.273Z,95.60
2017-12-04T22:10:44.199Z,95.50
2017-12-04T22:13:11.157Z,95.60
2017-12-04T22:15:38.493Z,95.40
2017-12-04T22:18:05.478Z,95.40
2017-12-04T22:20:32.748Z,95.10
2017-12-04T22:22:59.711Z,95.10
2017-12-04T22:25:26.979Z,95.20
2017-12-04T22:27:54.263Z,95.10
2017-12-04T22:30:21.264Z,95.10
2017-12-04T22:32:48.158Z,94.90
2017-12-04T22:35:15.446Z,95.10
2017-12-04T22:37:42.417Z,95.10
2017-12-04T22:40:09.313Z,94.90
2017-12-04T22:42:36.192Z,94.70
2017-12-04T22:45:03.630Z,94.50
2017-12-04T22:47:31.963Z,94.50
2017-12-04T22:49:59.018Z,94.50
2017-12-04T22:52:26.704Z,94.50
2017-12-04T22:54:54.355Z,94.70
2017-12-04T22:57:22.432Z,94.50
2017-12-04T22:59:50.187Z,94.70
2017-12-04T23:02:17.150Z,94.70
2017-12-04T23:04:44.028Z,94.40
2017-12-04T23:07:11.130Z,94.40
2017-12-04T23:09:37.738Z,94.40
2017-12-04T23:12:04.370Z,94.40
2017-12-04T23:14:31.426Z,94.30
2017-12-04T23:16:58.347Z,94.30
2017-12-04T23:19:24.970Z,94.30
2017-12-04T23:21:51.690Z,94.30
2017-12-04T23:24:18.722Z,94.40
2017-12-04T23:26:45.369Z,94.40
2017-12-04T23:29:12.005Z,94.70
2017-12-04T23:31:38.666Z,94.70
2017-12-04T23:34:05.333Z,94.70
2017-12-04T23:36:32.061Z,94.80
2017-12-04T23:38:58.637Z,94.80
2017-12-04T23:41:25.212Z,94.70
2017-12-04T23:43:51.846Z,94.70
2017-12-04T23:46:18.758Z,94.70
2017-12-04T23:48:45.322Z,94.70
2017-12-04T23:51:11.979Z,94.80
2017-12-04T23:53:38.529Z,95.20
2017-12-04T23:56:05.094Z,95.10
2017-12-04T23:58:32.090Z,95.10
